Fort Simpson, Canada
Current Conditions -  °F | °C
As of 3:00 AM on Thursday 23 Oct 2014 (Local Time) from CYFS Reporting Station
Light Snow Light Snow  
Wind Chill: 18°   Ceiling: 700
Heat Index: 28°   Visibility: 2.5mi
Dew Point: 27°   Wind: 13mph
Humidity: 93%   Direction: 310°NW
Pressure: 29.52"   Gusts: NA
Location:  61.86°N, 121.35°W
Report Text: CYFS 230900Z 31011KT 2 1/2SM -SN OVC007 M02/M03 A2952 RMK SN3ST5 SLP008
Loading
Personal Weather Stations






























Interactive Weather Map
Tropical Storm Tracking
New forecast layout! Learn more

10-Day Weather Forecast

Advertisements
Track Severe Weather on mobile